Airfield :







YOU CAN JOIN US ON...

 
LOGIN :

Register | Disclaimer

   EN    FR    IT 

 









Legend :    VFR   Marginal VFR   IFR   Intensive IFR   Very Intensive IFR
Visi :
Ceiling :
>= 8 km
>= 3000ft
5 to 8 km
1000 to 3000 ft
1500m to 5 km
500 to 1000 ft
800 to 1500m
200 to 500 ft
< 800m
< 200 ft
Symbols :   Thunderstorms  Fog  Heavy snow  Heavy precipitations  Wind > 20 kt







- Airport Elevation : 108 ft
- IATA code : YGP


CYGP - Gaspé

CURRENT METAR :
  • 191900Z VRB02KT 15SM SKC 20/05 A3012 RMK SLP203 DENSITY ALT 500FT

EXPIRED METARs :
  • 191800Z 06007KT 15SM FEW220 19/07 A3015 RMK CI1 CI TR SLP211 DENSITY ALT 400FT
  • 191700Z 09007KT 15SM FEW220 16/08 A3017 RMK CI1 CI TR SLP219

TAF TAF CYGP
Valid from the 19 at 14:00 until the 20 at 02:00 UTC


191338Z 1914/2002 25005KT P6SM SKC
BECMG 1915/1917 09008KT
BECMG 1920/1922 26006KT RMK NXT FCST BY 192000Z
No reported NOTAMs for that airfield.



MET'MAP, your aeronautical weather chart ! - Copyright ORBIFLY December 2007 - Disclaimer

ORBIFLY MET'MAP TEAM :

Programming & Development : Alexandra Zaïnal
Concept & Development : Baudouin d'Aumeries
Co-Development & Prog : Marc-Olivier Méhu
Technical & hardware support : Manuel Goepfert

Contact : metmap@orbifly.com




SOURCES & CREDITS :

   NOAA